Latest Weather Observations for Tarcoola

IDS60801

Issued at 9:31 pm CST Saturday 25 June 2016 (issued every 30 minutes, with the page automatically refreshed every 10 minutes)

About weather observations | Map of weather stations | Latest weather observations for SA | Other Formats
Station Details ID: 016098 Name: TARCOOLA AERO Lat: -30.71 Lon: 134.58 Height: 123.0 m
Data from the previous 72 hours. | See also: Recent months at Tarcoola
Date/Time
CST
Temp
°C
App
Temp
°C
Dew
Point
°C
Rel
Hum
%
Delta-T
°C
Wind Press
QNH
hPa
Press
MSL
hPa
Rain since
9am
mm
Dir  Spd
km/h
Gust
km/h
Spd
kts
Gust
kts
25/09:30pm 10.3 7.0 4.7 68 2.5 ESE 11 15 6 8 1019.6 1019.7 0.0
25/09:00pm 10.2 7.1 5.4 72 2.2 ESE 11 11 6 6 1020.0 1020.1 0.0
25/08:30pm 9.5 7.4 6.0 79 1.6 ESE 6 9 3 5 1020.3 1020.4 0.0
25/08:00pm 9.6 8.7 6.1 79 1.6 CALM 0 0 0 0 1020.2 1020.3 0.0
25/07:30pm 9.7 7.4 5.5 75 1.9 SE 7 7 4 4 1019.9 1020.0 0.0
25/07:00pm 10.1 7.6 4.9 70 2.4 E 7 9 4 5 1019.8 1019.9 0.0
25/06:30pm 10.6 9.5 4.9 68 2.6 CALM 0 0 0 0 1019.9 1020.0 0.0
25/06:00pm 11.1 8.0 3.6 60 3.3 NE 9 13 5 7 1019.6 1019.7 0.0
25/05:30pm 11.7 7.7 3.0 55 3.8 ENE 13 17 7 9 1019.4 1019.5 0.0
25/05:00pm 12.2 8.1 2.4 51 4.3 NE 13 19 7 10 1020.8 1020.8 0.0
25/04:30pm 12.3 7.1 2.5 51 4.3 ENE 19 24 10 13 1020.7 1020.7 0.0
25/04:00pm 12.5 8.0 2.4 50 4.4 E 15 20 8 11 1020.2 1020.3 0.0
25/03:30pm 12.6 8.2 2.5 50 4.4 ENE 15 20 8 11 1020.9 1020.9 0.0
25/03:00pm 12.6 7.7 1.9 48 4.6 ENE 17 22 9 12 1020.3 1020.4 0.0
25/02:30pm 12.8 7.3 1.8 47 4.7 NE 20 28 11 15 1021.0 1021.0 0.0
25/02:00pm 12.8 7.0 2.4 49 4.6 NNE 22 30 12 16 1021.8 1021.8 0.0
25/01:30pm 13.1 7.9 2.6 49 4.6 NNE 19 28 10 15 1022.1 1022.1 0.0
25/01:00pm 12.9 7.7 2.2 48 4.7 NE 19 26 10 14 1022.5 1022.5 0.0
25/12:30pm 12.9 8.1 2.7 50 4.5 NNE 17 24 9 13 1023.4 1023.5 0.0
25/12:00pm 12.7 7.8 2.0 48 4.6 N 17 22 9 12 1024.1 1024.2 0.0
25/11:30am 12.5 8.0 2.1 49 4.5 NE 15 20 8 11 1024.2 1024.3 0.0
25/11:00am 12.4 8.3 2.0 49 4.5 NE 13 20 7 11 1024.5 1024.6 0.0
25/10:30am 12.1 6.8 2.0 50 4.3 NE 19 26 10 14 1025.0 1025.1 0.0
25/10:00am 12.1 7.7 2.6 52 4.2 NE 15 20 8 11 1024.8 1024.9 0.0
25/09:30am 12.0 8.1 3.5 56 3.8 NE 13 17 7 9 1024.7 1024.8 0.0
25/09:00am 11.4 8.5 4.6 63 3.1 NE 9 13 5 7 1024.4 1024.5 0.0
25/08:30am 10.8 7.9 4.9 67 2.7 NE 9 11 5 6 1024.6 1024.7 0.0
25/08:00am 10.3 8.0 5.5 72 2.2 NE 7 9 4 5 1024.5 1024.6 0.0
25/07:30am 10.1 7.7 5.3 72 2.2 NNE 7 9 4 5 1024.2 1024.3 0.0
25/07:00am 10.2 7.8 5.2 71 2.3 NNE 7 9 4 5 1024.1 1024.2 0.0
25/06:30am 10.2 7.7 5.0 70 2.4 NNE 7 11 4 6 1023.9 1024.0 0.0
25/06:00am 10.3 7.4 4.9 69 2.4 NE 9 11 5 6 1023.8 1023.9 0.0
25/05:30am 10.4 7.5 4.8 68 2.5 NE 9 9 5 5 1023.5 1023.6 0.0
25/05:00am 10.7 7.8 4.6 66 2.8 NNE 9 13 5 7 1023.5 1023.6 0.0
25/04:30am 10.7 8.2 4.8 67 2.7 NE 7 11 4 6 1023.6 1023.7 0.0
25/04:00am 11.5 8.1 3.8 59 3.4 NNE 11 15 6 8 1023.7 1023.8 0.0
25/03:30am 10.9 8.0 4.8 66 2.8 NE 9 13 5 7 1023.7 1023.8 0.0
25/03:00am 11.0 8.6 5.1 67 2.7 ENE 7 11 4 6 1023.8 1023.9 0.0
25/02:30am 11.2 8.0 4.9 65 2.9 NE 11 13 6 7 1023.9 1024.0 0.0
25/02:00am 11.3 8.1 5.0 65 2.9 ENE 11 13 6 7 1023.9 1024.0 0.0
25/01:30am 12.1 8.7 3.9 57 3.7 ENE 11 19 6 10 1024.1 1024.2 0.0
25/01:00am 11.9 9.4 3.9 58 3.6 ENE 6 11 3 6 1024.1 1024.2 0.0
25/12:30am 11.5 9.1 5.4 66 2.8 ENE 7 9 4 5 1024.2 1024.3 0.0
25/12:00am 11.6 9.4 5.5 66 2.8 E 6 9 3 5 1024.4 1024.5 0.0
 
Date/Time
CST
Temp
°C
App
Temp
°C
Dew
Point
°C
Rel
Hum
%
Delta-T
°C
Wind Press
QNH
hPa
Press
MSL
hPa
Rain since
9am
mm
Dir  Spd
km/h
Gust
km/h
Spd
kts
Gust
kts
24/11:30pm 11.7 10.8 6.0 68 2.7 CALM 0 6 0 3 1024.4 1024.5 0.0
24/11:00pm 12.0 10.8 4.7 61 3.3 CALM 0 0 0 0 1024.5 1024.6 0.0
24/10:30pm 11.8 11.0 6.5 70 2.5 CALM 0 0 0 0 1024.6 1024.7 0.0
24/10:00pm 12.2 10.3 5.1 62 3.3 NNW 4 9 2 5 1024.5 1024.6 0.0
24/09:30pm 12.0 10.2 5.4 64 3.1 NNE 4 7 2 4 1024.4 1024.5 0.0
24/09:00pm 12.3 11.3 5.7 64 3.1 CALM 0 0 0 0 1024.4 1024.5 0.0
24/08:30pm 12.4 10.0 5.1 61 3.4 SE 7 9 4 5 1024.3 1024.4 0.0
24/08:00pm 13.4 10.7 3.5 51 4.5 S 7 15 4 8 1024.0 1024.1 0.0
24/07:30pm 12.9 10.6 4.6 57 3.8 SSE 6 7 3 4 1023.8 1023.9 0.0
24/07:00pm 12.7 10.6 5.8 63 3.3 ENE 6 7 3 4 1023.4 1023.5 0.0
24/06:30pm 12.8 11.4 5.7 62 3.3 E 2 7 1 4 1023.3 1023.4 0.0
24/06:00pm 13.2 10.8 4.1 54 4.1 S 6 9 3 5 1023.0 1023.1 0.0
24/05:30pm 13.7 11.0 3.5 50 4.6 SSE 7 11 4 6 1022.8 1022.8 0.0
24/05:00pm 13.8 12.6 4.4 53 4.3 CALM 0 0 0 0 1022.8 1022.8 0.0
24/04:30pm 13.9 11.2 2.5 46 5.0 SW 6 11 3 6 1022.7 1022.7 0.0
24/04:00pm 14.1 10.9 3.3 48 4.9 WSW 9 13 5 7 1022.6 1022.6 0.0
24/03:30pm 13.9 9.7 3.7 50 4.6 WSW 15 20 8 11 1022.4 1022.4 0.0
24/03:00pm 14.2 9.8 4.8 53 4.4 SW 17 24 9 13 1022.2 1022.2 0.0
24/02:30pm 14.4 10.3 4.1 50 4.7 S 15 24 8 13 1021.9 1021.9 0.0
24/02:00pm 14.5 10.0 2.4 44 5.4 SSW 15 24 8 13 1021.9 1021.9 0.0
24/01:30pm 14.5 9.9 3.9 49 4.9 SSW 17 24 9 13 1022.0 1022.0 0.0
24/01:00pm 14.3 9.7 3.5 48 4.9 WSW 17 26 9 14 1022.3 1022.3 0.0
24/12:30pm 14.4 10.6 4.1 50 4.7 SSW 13 22 7 12 1022.7 1022.7 0.0
24/12:00pm 14.1 9.4 3.0 47 5.0 SW 17 24 9 13 1022.9 1023.0 0.0
24/11:30am 13.3 8.9 5.0 57 3.9 SW 17 20 9 11 1023.0 1023.1 0.0
24/11:00am 13.1 9.3 5.8 61 3.5 SSW 15 20 8 11 1023.2 1023.3 0.0
24/10:30am 12.1 8.1 6.6 69 2.6 WSW 17 20 9 11 1023.3 1023.4 0.0
24/10:00am 11.2 7.7 7.3 77 1.9 WSW 15 20 8 11 1023.0 1023.1 0.0
24/09:30am 10.0 6.8 6.9 81 1.5 WSW 13 17 7 9 1022.6 1022.6 0.0
24/09:00am 9.4 6.2 6.8 84 1.2 WSW 13 19 7 10 1021.9 1021.9 0.2
24/08:30am 8.5 5.7 6.8 89 0.8 W 11 15 6 8 1021.3 1021.3 0.2
24/08:00am 7.4 4.8 6.0 91 0.6 W 9 11 5 6 1021.0 1021.0 0.2
24/07:30am 7.4 4.4 5.9 90 0.7 WSW 11 13 6 7 1020.6 1020.6 0.2
24/07:00am 8.1 4.8 6.4 89 0.8 WSW 13 19 7 10 1020.0 1020.1 0.2
24/06:30am 8.5 4.9 6.6 88 0.9 W 15 19 8 10 1019.6 1019.7 0.2
24/06:00am 8.5 4.9 6.6 88 0.9 W 15 20 8 11 1019.2 1019.3 0.2
24/05:30am 8.1 4.7 6.1 87 0.9 W 13 17 7 9 1018.6 1018.7 0.2
24/05:00am 7.9 4.6 6.2 89 0.8 W 13 17 7 9 1018.3 1018.4 0.2
24/04:30am 8.0 4.3 6.3 89 0.8 W 15 17 8 9 1018.3 1018.4 0.2
24/04:00am 8.2 4.2 6.5 89 0.8 W 17 20 9 11 1018.1 1018.2 0.2
24/03:30am 8.2 4.9 6.5 89 0.8 W 13 17 7 9 1017.9 1018.0 0.2
24/03:00am 8.6 5.3 6.6 87 0.9 W 13 17 7 9 1017.7 1017.8 0.2
24/02:30am 8.8 5.2 6.8 87 0.9 W 15 20 8 11 1017.5 1017.6 0.2
24/02:00am 9.2 4.9 7.0 86 1.0 W 19 24 10 13 1017.3 1017.4 0.2
24/01:30am 9.4 5.5 7.3 87 1.0 W 17 24 9 13 1017.3 1017.4 0.2
24/01:00am 9.5 5.7 7.4 87 1.0 W 17 22 9 12 1017.1 1017.2 0.2
24/12:30am 9.6 5.8 7.4 86 1.0 W 17 20 9 11 1017.1 1017.2 0.2
24/12:00am 9.9 6.0 7.2 83 1.3 W 17 20 9 11 1017.0 1017.1 0.2
 
Date/Time
CST
Temp
°C
App
Temp
°C
Dew
Point
°C
Rel
Hum
%
Delta-T
°C
Wind Press
QNH
hPa
Press
MSL
hPa
Rain since
9am
mm
Dir  Spd
km/h
Gust
km/h
Spd
kts
Gust
kts
23/11:30pm 10.5 6.7 7.7 83 1.4 W 17 20 9 11 1016.9 1017.0 0.2
23/11:00pm 11.1 6.9 8.1 82 1.5 WSW 20 30 11 16 1016.8 1016.9 0.2
23/10:30pm 10.6 7.0 8.4 86 1.1 W 17 24 9 13 1016.5 1016.6 0.2
23/10:00pm 10.4 7.2 8.5 88 0.9 W 15 19 8 10 1016.1 1016.2 0.2
23/09:30pm 10.6 7.8 8.4 86 1.1 WSW 13 17 7 9 1015.8 1015.8 0.2
23/09:00pm 11.0 7.8 8.4 84 1.3 W 15 20 8 11 1015.4 1015.4 0.2
23/08:30pm 11.4 7.4 8.4 82 1.5 W 19 24 10 13 1015.0 1015.0 0.2
23/08:00pm 11.8 7.7 8.5 80 1.6 W 20 26 11 14 1014.7 1014.7 0.2
23/07:30pm 12.0 8.1 8.8 81 1.6 W 19 24 10 13 1014.3 1014.3 0.2
23/07:00pm 12.1 8.3 9.7 85 1.2 W 20 28 11 15 1013.8 1013.8 0.2
23/06:30pm 12.4 7.7 9.4 82 1.5 W 24 32 13 17 1013.3 1013.3 0.2
23/06:00pm 12.6 7.2 9.4 81 1.6 W 28 37 15 20 1012.9 1012.9 0.2
23/05:30pm 12.9 7.5 9.5 80 1.7 WSW 28 37 15 20 1012.4 1012.4 0.2
23/05:00pm 13.8 5.7 8.8 72 2.5 WSW 41 59 22 32 1012.0 1012.0 0.2
23/04:36pm 15.9 9.0 6.6 54 4.6 W 32 57 17 31 1011.1 1011.2 0.2
23/04:30pm 16.0 9.2 6.7 54 4.6 W 32 43 17 23 1011.0 1011.1 0.2
23/04:00pm 16.3 9.3 6.2 51 4.9 W 32 46 17 25 1010.5 1010.6 0.2
23/03:36pm 16.4 8.7 5.4 48 5.3 W 35 54 19 29 1010.5 1010.6 0.2
23/03:30pm 16.6 8.5 5.3 47 5.4 W 37 54 20 29 1010.5 1010.6 0.2
23/03:00pm 17.3 10.7 5.9 47 5.6 W 30 43 16 23 1010.3 1010.4 0.2
23/02:30pm 17.0 9.3 5.3 46 5.7 W 35 50 19 27 1010.4 1010.5 0.2
23/02:00pm 16.5 9.0 6.1 50 5.1 WNW 35 46 19 25 1010.4 1010.5 0.2
23/01:30pm 16.3 8.8 6.4 52 4.9 WNW 35 46 19 25 1010.9 1011.0 0.0
23/01:00pm 15.9 9.0 7.1 56 4.4 WNW 33 44 18 24 1011.3 1011.4 0.0
23/12:36pm 15.3 8.3 6.1 54 4.5 WNW 32 52 17 28 1011.8 1011.9 0.0
23/12:30pm 15.7 8.9 6.7 55 4.4 W 32 43 17 23 1012.2 1012.2 0.0
23/12:00pm 15.3 8.7 7.6 60 3.9 WNW 32 43 17 23 1012.4 1012.4 0.0
23/11:30am 14.3 7.5 6.9 61 3.6 WNW 32 43 17 23 1012.7 1012.7 0.0
23/11:00am 13.7 7.7 7.2 65 3.2 WNW 28 39 15 21 1013.0 1013.0 0.0
23/10:30am 12.7 7.0 6.7 67 2.9 WNW 26 33 14 18 1013.3 1013.3 0.0
23/10:00am 11.4 6.5 7.1 75 2.1 NW 22 28 12 15 1013.4 1013.4 0.0
23/09:30am 10.3 5.2 7.7 84 1.3 NW 24 30 13 16 1013.0 1013.0 0.0
23/09:00am 8.9 4.0 6.9 87 0.9 NW 22 30 12 16 1012.9 1012.9 0.4
23/08:30am 8.0 3.4 6.6 91 0.6 NW 20 28 11 15 1012.8 1012.8 0.4
23/08:00am 7.0 2.9 6.1 94 0.4 NNW 17 20 9 11 1012.8 1012.8 0.4
23/07:30am 5.4 3.0 4.5 94 0.4 NNE 6 11 3 6 1012.7 1012.7 0.4
23/07:00am 5.6 4.4 4.6 93 0.4 CALM 0 6 0 3 1012.6 1012.6 0.4
23/06:30am 6.6 4.9 5.7 94 0.4 W 4 9 2 5 1012.4 1012.4 0.4
23/06:00am 6.3 5.2 5.3 93 0.4 CALM 0 0 0 0 1012.4 1012.4 0.4
23/05:30am 6.5 5.1 5.5 93 0.4 NNE 2 6 1 3 1012.2 1012.2 0.4
23/05:00am 6.8 4.7 5.7 93 0.5 NNW 6 9 3 5 1012.1 1012.1 0.4
23/04:30am 6.8 5.1 5.7 93 0.5 NNE 4 6 2 3 1012.3 1012.3 0.4
23/04:00am 6.8 5.1 5.7 93 0.5 W 4 9 2 5 1012.2 1012.2 0.4
23/03:30am 6.6 5.6 5.4 92 0.5 CALM 0 0 0 0 1012.2 1012.2 0.4
23/03:00am 7.3 5.3 6.1 92 0.5 WNW 6 7 3 4 1012.4 1012.4 0.4
23/02:30am 7.6 5.4 6.4 92 0.6 W 7 9 4 5 1012.4 1012.4 0.4
23/02:00am 8.7 6.1 7.6 93 0.5 WNW 11 19 6 10 1012.6 1012.6 0.4
23/01:30am 8.2 7.5 7.1 93 0.5 CALM 0 6 0 3 1013.1 1013.1 0.4
23/01:00am 8.2 7.5 7.1 93 0.5 CALM 0 0 0 0 1013.5 1013.5 0.4
23/12:30am 8.0 6.9 6.9 93 0.5 E 2 7 1 4 1013.8 1013.8 0.4
23/12:00am 8.6 6.3 7.4 92 0.6 NNW 9 11 5 6 1014.2 1014.2 0.4
 
Date/Time
CST
Temp
°C
App
Temp
°C
Dew
Point
°C
Rel
Hum
%
Delta-T
°C
Wind Press
QNH
hPa
Press
MSL
hPa
Rain since
9am
mm
Dir  Spd
km/h
Gust
km/h
Spd
kts
Gust
kts
22/11:30pm 9.0 6.4 7.8 92 0.6 NW 11 11 6 6 1014.5 1014.5 0.4
22/11:00pm 9.3 6.8 8.1 92 0.6 NW 11 11 6 6 1014.6 1014.6 0.4
22/10:30pm 9.3 6.8 8.1 92 0.6 NW 11 11 6 6 1014.8 1014.8 0.4
22/10:00pm 9.5 7.4 8.1 91 0.7 NW 9 11 5 6 1014.6 1014.6 0.4

Other Formats:

Comma delimited format used in spreadsheet applications
http://www.bom.gov.au/fwo/IDS60801/IDS60801.94655.axf

JavaScript Object Notation format (JSON) in row-major order
http://www.bom.gov.au/fwo/IDS60801/IDS60801.94655.json